Terminal Aerodrome Forecast
Issued by NWS Brownsville, TX

Home | Current Version | Previous Version | Text Only | Print | Product List | Glossary On
Versions: 1 2 3 4 5 6 7 8 9 10 11 12 13 14 15 16
000
FTUS44 KBRO 241700
TAFMFE
TAF
KMFE 241720Z 2418/2518 04007KT P6SM FEW040
      TEMPO 2510/2514 4SM BR=

USA.gov is the U.S. government's official web portal to all federal, state and local government web resources and services.